Crawford, Tennessee
Current Conditions -  °F | °C
As of 5:53 AM on Thursday 27 Nov 2014 (Local Time) from KCSV Reporting Station
Light Snow Light Snow  
Wind Chill: 23°   Ceiling: 2000
Heat Index: 33°   Visibility: 2mi
Dew Point: 29°   Wind: 14mph
Humidity: 85%   Direction: 290°WNW
Pressure: 30.13"   Gusts: NA
Location:  36.27°N, 85.16°W
Report Text: KCSV 271153Z AUTO 29012KT 2SM -SN BR FEW009 BKN020 OVC025 01/M02 A3013 RMK AO2 PK WND 28026/1111 SNB26 SLP210 P0000 60000 70010 T00061017 10033 20006 53029
Loading
Personal Weather Stations






























Interactive Weather Map New forecast layout! Learn more

10-Day Weather Forecast

Advertisements
Track Severe Weather on mobile